Gravel Siding, Mississippi
Current Conditions -  °F | °C
As of 9:15 PM on Saturday 22 Nov 2014 (Local Time) from KCRX Reporting Station
Overcast Overcast  
Wind Chill: 52°   Ceiling: 4100
Heat Index: 52°   Visibility: 10mi
Dew Point: 45°   Wind: 5mph
Humidity: 76%   Direction: 130°SE
Pressure: 30.05"   Gusts: NA
Location:  34.8106°N, 88.1999°W
Report Text: KCRX 230315Z AUTO 13004KT 10SM OVC041 11/07 A3005 RMK AO2
Loading
Personal Weather Stations






























Interactive Weather Map New forecast layout! Learn more

10-Day Weather Forecast

Advertisements
Track Severe Weather on mobile